McCarran, Nevada
Current Conditions -  °F | °C
As of 12:55 PM on Thursday 18 Dec 2014 (Local Time) from KRNO Reporting Station
Broken Clouds Broken Clouds  
Wind Chill:   Ceiling: 24000
Heat Index:   Visibility: 10mi
Dew Point: -2°   Wind: 0mph
Humidity: 50%   Direction: NA
Pressure: 30.12"   Gusts: NA
Location:  39.5403°N, 119.672°W
Report Text: KRNO 182055Z 00000KT 10SM FEW060 FEW120 FEW150 BKN240 08/M02 A3012 RMK AO2 SLP195 ACSL DSNT SE-SW T00831017 58010
Loading
Personal Weather Stations






























Interactive Weather Map New forecast layout! Learn more

10-Day Weather Forecast

Advertisements
Track Severe Weather on mobile